createdAt,value
2022-12-25T00:02:08.643Z,9.75
2022-12-25T00:04:35.594Z,9.13
2022-12-25T00:07:02.611Z,7.38
2022-12-25T00:09:30.115Z,8.43
2022-12-25T00:11:57.077Z,9.00
2022-12-25T00:14:24.086Z,6.38
2022-12-25T00:16:51.082Z,8.73
2022-12-25T00:19:18.258Z,7.93
2022-12-25T00:21:45.244Z,6.72
2022-12-25T00:24:12.296Z,9.40
2022-12-25T00:26:39.400Z,6.70
2022-12-25T00:29:06.367Z,5.65
2022-12-25T00:31:34.761Z,11.55
2022-12-25T00:34:01.800Z,6.95
2022-12-25T00:36:28.819Z,6.75
2022-12-25T00:38:55.903Z,8.07
2022-12-25T00:41:42.478Z,5.97
2022-12-25T00:44:12.725Z,6.68
2022-12-25T00:46:40.341Z,6.80
2022-12-25T00:49:07.507Z,9.70
2022-12-25T00:51:34.562Z,8.05
2022-12-25T00:54:01.627Z,4.70
2022-12-25T00:56:28.944Z,5.60
2022-12-25T00:58:56.108Z,6.75
2022-12-25T01:01:23.254Z,7.40
2022-12-25T01:03:50.315Z,5.78
2022-12-25T01:06:17.271Z,7.53
2022-12-25T01:09:02.798Z,8.82
2022-12-25T01:11:30.549Z,10.40
2022-12-25T01:13:57.579Z,11.63
2022-12-25T01:16:24.631Z,11.48
2022-12-25T01:18:51.708Z,11.90
2022-12-25T01:21:22.380Z,11.43
2022-12-25T01:23:50.767Z,11.77
2022-12-25T01:26:19.161Z,12.52
2022-12-25T01:28:46.576Z,6.57
2022-12-25T01:31:15.660Z,9.48
2022-12-25T01:33:43.839Z,9.20
2022-12-25T01:36:25.432Z,7.15
2022-12-25T01:38:53.800Z,7.75
2022-12-25T01:41:23.667Z,9.00
2022-12-25T01:43:58.371Z,9.43
2022-12-25T01:46:25.482Z,11.00
2022-12-25T01:48:54.174Z,7.82
2022-12-25T01:51:34.650Z,9.02
2022-12-25T01:54:06.079Z,10.45
2022-12-25T01:56:33.856Z,9.60
2022-12-25T01:59:02.765Z,10.05
2022-12-25T02:01:29.975Z,6.82
2022-12-25T02:04:06.827Z,8.65
2022-12-25T02:06:35.361Z,10.48
2022-12-25T02:09:03.139Z,6.70
2022-12-25T02:11:48.521Z,7.10
2022-12-25T02:14:15.548Z,7.07
2022-12-25T02:16:57.969Z,12.50
2022-12-25T02:19:52.862Z,9.10
2022-12-25T02:22:35.063Z,9.45
2022-12-25T02:25:24.906Z,11.48
2022-12-25T02:28:34.887Z,8.35
2022-12-25T02:31:11.011Z,9.63
2022-12-25T02:34:05.125Z,9.63
2022-12-25T02:36:47.713Z,8.57
2022-12-25T02:39:59.077Z,7.25
2022-12-25T02:42:52.072Z,8.52
2022-12-25T02:45:46.547Z,11.30
2022-12-25T02:48:34.067Z,6.72
2022-12-25T02:51:24.074Z,7.40
2022-12-25T02:54:13.563Z,9.60
2022-12-25T02:57:01.105Z,6.68
2022-12-25T03:00:02.757Z,7.30
2022-12-25T03:02:50.368Z,8.32
2022-12-25T03:05:41.678Z,11.27
2022-12-25T03:08:14.759Z,7.72
2022-12-25T03:11:04.118Z,8.02
2022-12-25T03:13:37.861Z,10.82
2022-12-25T03:16:24.353Z,11.02
2022-12-25T03:18:51.388Z,8.30
2022-12-25T03:21:36.806Z,10.07
2022-12-25T03:24:22.218Z,9.75
2022-12-25T03:26:55.463Z,11.65
2022-12-25T03:29:59.126Z,19.50
2022-12-25T03:32:47.808Z,11.30
2022-12-25T03:35:25.812Z,9.23
2022-12-25T03:38:32.625Z,9.90
2022-12-25T03:41:21.015Z,6.43
2022-12-25T03:44:31.723Z,7.88
2022-12-25T03:47:43.368Z,9.60
2022-12-25T03:50:34.913Z,6.53
2022-12-25T03:53:23.763Z,12.95
2022-12-25T03:56:10.667Z,7.82
2022-12-25T03:58:56.184Z,9.02
2022-12-25T04:01:41.774Z,7.28
2022-12-25T04:04:27.349Z,5.57
2022-12-25T04:07:12.751Z,8.15
2022-12-25T04:09:58.227Z,7.75
2022-12-25T04:12:43.763Z,6.05
2022-12-25T04:15:29.742Z,7.70
2022-12-25T04:18:15.164Z,6.22
2022-12-25T04:21:00.534Z,7.78
2022-12-25T04:23:46.031Z,7.55
2022-12-25T04:26:31.445Z,6.90
2022-12-25T04:29:17.052Z,7.07
2022-12-25T04:32:02.427Z,4.32
2022-12-25T04:34:47.862Z,4.38
2022-12-25T04:37:14.843Z,2.72
2022-12-25T04:39:41.816Z,5.15
2022-12-25T04:42:08.785Z,2.65
2022-12-25T04:44:35.783Z,5.18
2022-12-25T04:47:07.573Z,6.82
2022-12-25T04:49:38.051Z,1.95
2022-12-25T04:52:05.154Z,1.88
2022-12-25T04:54:32.173Z,1.83
2022-12-25T04:56:59.123Z,3.00
2022-12-25T04:59:26.085Z,2.92
2022-12-25T05:01:53.108Z,4.25
2022-12-25T05:04:20.278Z,3.28
2022-12-25T05:06:47.223Z,5.72
2022-12-25T05:09:14.180Z,4.70
2022-12-25T05:11:41.142Z,4.35
2022-12-25T05:14:08.184Z,4.63
2022-12-25T05:16:35.291Z,3.08
2022-12-25T05:19:02.394Z,8.18
2022-12-25T05:21:29.332Z,8.18
2022-12-25T05:23:56.330Z,9.93
2022-12-25T05:26:25.441Z,5.68
2022-12-25T05:28:52.851Z,4.38
2022-12-25T05:31:20.581Z,3.92
2022-12-25T05:33:51.880Z,3.33
2022-12-25T05:36:19.213Z,5.82
2022-12-25T05:38:46.207Z,4.10
2022-12-25T05:41:13.210Z,3.80
2022-12-25T05:43:40.190Z,4.35
2022-12-25T05:46:08.703Z,7.05
2022-12-25T05:48:37.903Z,2.53
2022-12-25T05:51:07.126Z,2.60
2022-12-25T05:53:34.640Z,4.95
2022-12-25T05:56:03.391Z,4.25
2022-12-25T05:58:31.550Z,6.93
2022-12-25T06:00:58.885Z,4.45
2022-12-25T06:03:26.250Z,5.78
2022-12-25T06:05:53.810Z,3.60
2022-12-25T06:08:21.083Z,5.80
2022-12-25T06:10:48.237Z,14.18
2022-12-25T06:13:15.258Z,22.02
2022-12-25T06:15:42.683Z,18.88
2022-12-25T06:18:09.751Z,12.50
2022-12-25T06:20:39.763Z,6.57
2022-12-25T06:23:06.806Z,6.05
2022-12-25T06:25:33.799Z,3.67
2022-12-25T06:28:00.789Z,5.78
2022-12-25T06:30:27.801Z,2.95
2022-12-25T06:32:54.735Z,3.70
2022-12-25T06:35:21.771Z,4.97
2022-12-25T06:37:48.756Z,4.40
2022-12-25T06:40:15.894Z,7.45
2022-12-25T06:42:42.814Z,3.05
2022-12-25T06:45:10.451Z,5.95
2022-12-25T06:47:38.258Z,5.95
2022-12-25T06:50:06.560Z,4.85
2022-12-25T06:52:33.900Z,5.82
2022-12-25T06:55:00.894Z,6.25
2022-12-25T06:57:27.860Z,6.30
2022-12-25T06:59:55.629Z,5.97
2022-12-25T07:02:24.479Z,7.72
2022-12-25T07:04:52.207Z,4.90
2022-12-25T07:07:20.087Z,10.00
2022-12-25T07:09:47.058Z,13.90
2022-12-25T07:12:18.091Z,37.63
2022-12-25T07:14:48.861Z,12.70
2022-12-25T07:17:17.075Z,22.33
2022-12-25T07:19:45.436Z,10.93
2022-12-25T07:22:13.278Z,10.85
2022-12-25T07:24:40.209Z,15.38
2022-12-25T07:27:08.393Z,19.33
2022-12-25T07:29:35.470Z,14.32
2022-12-25T07:32:02.528Z,16.73
2022-12-25T07:34:29.574Z,19.02
2022-12-25T07:36:56.521Z,16.17
2022-12-25T07:39:23.984Z,21.55
2022-12-25T07:41:51.421Z,16.08
2022-12-25T07:44:18.680Z,13.48
2022-12-25T07:46:46.257Z,13.07
2022-12-25T07:49:13.682Z,9.82
2022-12-25T07:51:40.747Z,12.85
2022-12-25T07:54:07.782Z,12.48
2022-12-25T07:56:34.986Z,11.00
2022-12-25T07:59:02.015Z,13.48
2022-12-25T08:01:29.874Z,11.60
2022-12-25T08:04:01.679Z,10.90
2022-12-25T08:06:35.270Z,11.38
2022-12-25T08:09:08.402Z,14.50
2022-12-25T08:11:35.480Z,13.02
2022-12-25T08:14:04.968Z,13.95
2022-12-25T08:16:31.929Z,16.25
2022-12-25T08:18:59.017Z,13.10
2022-12-25T08:21:25.995Z,19.42
2022-12-25T08:23:52.921Z,23.67
2022-12-25T08:26:22.205Z,21.15
2022-12-25T08:28:49.797Z,19.55
2022-12-25T08:31:26.248Z,20.10
2022-12-25T08:33:55.268Z,15.23
2022-12-25T08:36:22.810Z,22.00
2022-12-25T08:38:50.258Z,15.88
2022-12-25T08:41:17.534Z,16.38
2022-12-25T08:43:44.517Z,17.98
2022-12-25T08:46:12.302Z,19.40
2022-12-25T08:48:42.555Z,16.63
2022-12-25T08:51:14.781Z,19.13
2022-12-25T08:53:46.859Z,16.98
2022-12-25T08:56:14.568Z,17.10
2022-12-25T08:58:41.832Z,19.55
2022-12-25T09:01:08.918Z,17.08
2022-12-25T09:03:36.176Z,20.48
2022-12-25T09:06:08.401Z,21.15
2022-12-25T09:08:36.865Z,20.35
2022-12-25T09:11:11.804Z,20.25
2022-12-25T09:13:39.206Z,18.63
2022-12-25T09:16:07.899Z,18.23
2022-12-25T09:18:34.910Z,21.30
2022-12-25T09:21:05.095Z,23.13
2022-12-25T09:23:33.066Z,20.45
2022-12-25T09:26:02.129Z,18.20
2022-12-25T09:28:37.349Z,21.67
2022-12-25T09:31:04.560Z,16.02
2022-12-25T09:33:31.733Z,16.45
2022-12-25T09:36:00.924Z,18.60
2022-12-25T09:38:29.145Z,23.70
2022-12-25T09:41:16.291Z,22.50
2022-12-25T09:43:48.851Z,23.65
2022-12-25T09:46:20.257Z,21.70
2022-12-25T09:49:20.043Z,17.98
2022-12-25T09:51:53.387Z,22.83
2022-12-25T09:54:29.454Z,45.20
2022-12-25T09:56:56.453Z,40.58
2022-12-25T09:59:27.485Z,30.70
2022-12-25T10:02:10.378Z,14.18
2022-12-25T10:04:43.730Z,18.70
2022-12-25T10:07:22.767Z,12.35
2022-12-25T10:10:14.749Z,10.60
2022-12-25T10:13:15.793Z,11.15
2022-12-25T10:16:03.441Z,9.40
2022-12-25T10:19:05.723Z,11.57
2022-12-25T10:21:33.025Z,10.30
2022-12-25T10:24:15.090Z,12.90
2022-12-25T10:26:42.468Z,9.30
2022-12-25T10:29:22.519Z,8.98
2022-12-25T10:31:52.129Z,9.95
2022-12-25T10:34:19.163Z,8.30
2022-12-25T10:36:47.009Z,7.97
2022-12-25T10:39:20.709Z,8.05
2022-12-25T10:42:23.793Z,6.75
2022-12-25T10:45:03.943Z,7.93
2022-12-25T10:47:34.891Z,8.97
2022-12-25T10:50:09.940Z,10.02
2022-12-25T10:52:59.156Z,7.95
2022-12-25T10:55:29.241Z,7.72
2022-12-25T10:57:58.081Z,8.07
2022-12-25T11:00:27.887Z,7.35
2022-12-25T11:05:28.336Z,6.50
2022-12-25T11:07:57.012Z,6.03
2022-12-25T11:10:23.928Z,7.75
2022-12-25T11:12:51.780Z,6.45
2022-12-25T11:15:46.317Z,7.28
2022-12-25T11:18:19.775Z,7.80
2022-12-25T11:20:55.371Z,22.08
2022-12-25T11:23:24.637Z,7.93
2022-12-25T11:26:06.554Z,9.15
2022-12-25T11:28:37.007Z,6.25
2022-12-25T11:31:19.764Z,6.05
2022-12-25T11:34:05.908Z,6.97
2022-12-25T11:36:47.797Z,7.50
2022-12-25T11:39:28.320Z,5.63
2022-12-25T11:42:08.804Z,5.28
2022-12-25T11:44:58.933Z,6.20
2022-12-25T11:47:35.923Z,4.78
2022-12-25T11:50:14.248Z,5.38
2022-12-25T11:53:35.149Z,6.05
2022-12-25T11:56:30.607Z,7.28
2022-12-25T11:59:06.400Z,5.75
2022-12-25T12:01:47.267Z,5.18
2022-12-25T12:04:25.923Z,8.27
2022-12-25T12:06:56.021Z,6.05
2022-12-25T12:13:50.599Z,6.28
2022-12-25T12:16:17.575Z,4.70
2022-12-25T12:18:50.266Z,5.60
2022-12-25T12:21:25.448Z,4.57
2022-12-25T12:24:18.130Z,5.10
2022-12-25T12:26:47.463Z,4.47
2022-12-25T12:29:43.220Z,5.90
2022-12-25T12:32:35.021Z,6.78
2022-12-25T12:35:17.253Z,5.18
2022-12-25T12:38:54.211Z,5.53
2022-12-25T12:41:23.275Z,5.32
2022-12-25T12:43:54.732Z,5.03
2022-12-25T12:46:30.574Z,4.05
2022-12-25T12:50:01.734Z,3.78
2022-12-25T12:52:35.361Z,6.57
2022-12-25T12:55:02.571Z,4.38
2022-12-25T12:57:40.507Z,3.60
2022-12-25T13:00:19.201Z,4.60
2022-12-25T13:03:17.429Z,6.18
2022-12-25T13:06:34.274Z,4.45
2022-12-25T13:10:07.901Z,3.78
2022-12-25T13:12:35.076Z,4.43
2022-12-25T13:15:02.077Z,3.85
2022-12-25T13:17:32.145Z,3.88
2022-12-25T13:20:28.868Z,3.53
2022-12-25T13:22:55.910Z,3.65
2022-12-25T13:25:24.018Z,4.38
2022-12-25T13:27:57.847Z,6.30
2022-12-25T13:30:25.637Z,4.80
2022-12-25T13:32:52.803Z,4.35
2022-12-25T13:35:22.614Z,2.97
2022-12-25T13:40:26.252Z,2.67
2022-12-25T13:42:59.729Z,4.18
2022-12-25T13:45:29.888Z,4.75
2022-12-25T13:47:57.613Z,2.92
2022-12-25T13:50:30.903Z,2.63
2022-12-25T13:53:11.954Z,6.20
2022-12-25T13:55:39.570Z,3.67
2022-12-25T13:58:07.655Z,2.55
2022-12-25T14:00:34.587Z,2.88
2022-12-25T14:03:01.889Z,3.58
2022-12-25T14:05:42.092Z,5.38
2022-12-25T14:08:16.996Z,4.07
2022-12-25T14:10:48.385Z,2.88
2022-12-25T14:13:15.960Z,4.15
2022-12-25T14:15:44.392Z,3.30
2022-12-25T14:18:19.356Z,3.88
2022-12-25T14:21:04.217Z,4.40
2022-12-25T14:23:45.186Z,3.83
2022-12-25T14:26:21.296Z,3.10
2022-12-25T14:28:51.105Z,4.90
2022-12-25T14:33:46.432Z,5.60
2022-12-25T14:36:14.498Z,3.50
2022-12-25T14:38:44.049Z,3.25
2022-12-25T14:41:22.613Z,3.72
2022-12-25T14:43:55.217Z,3.42
2022-12-25T14:46:26.006Z,2.80
2022-12-25T14:49:09.940Z,4.13
2022-12-25T14:51:39.156Z,5.10
2022-12-25T14:54:16.807Z,3.25
2022-12-25T14:56:48.470Z,6.57
2022-12-25T14:59:23.709Z,5.07
2022-12-25T15:01:57.762Z,3.13
2022-12-25T15:04:26.214Z,4.15
2022-12-25T15:07:11.423Z,3.53
2022-12-25T15:09:40.315Z,7.18
2022-12-25T15:12:07.277Z,3.07
2022-12-25T15:14:36.556Z,3.20
2022-12-25T15:17:04.116Z,4.68
2022-12-25T15:19:38.075Z,4.53
2022-12-25T15:22:05.987Z,5.63
2022-12-25T15:24:33.012Z,9.20
2022-12-25T15:27:00.743Z,11.57
2022-12-25T15:32:21.156Z,2.80
2022-12-25T15:34:50.059Z,3.60
2022-12-25T15:37:18.437Z,6.03
2022-12-25T15:39:46.479Z,3.33
2022-12-25T15:42:16.044Z,3.00
2022-12-25T15:44:44.714Z,4.53
2022-12-25T15:47:16.824Z,2.60
2022-12-25T15:49:43.960Z,4.72
2022-12-25T15:52:14.466Z,5.18
2022-12-25T15:54:41.548Z,5.30
2022-12-25T15:57:18.164Z,5.40
2022-12-25T15:59:45.472Z,3.15
2022-12-25T16:02:18.294Z,2.95
2022-12-25T16:04:46.191Z,3.25
2022-12-25T16:07:20.999Z,3.28
2022-12-25T16:09:47.999Z,2.95
2022-12-25T16:12:15.238Z,2.33
2022-12-25T16:14:42.313Z,3.15
2022-12-25T16:17:13.396Z,2.80
2022-12-25T16:19:40.356Z,2.80
2022-12-25T16:22:27.445Z,1.63
2022-12-25T16:24:54.991Z,2.25
2022-12-25T16:27:22.070Z,2.08
2022-12-25T16:29:49.658Z,2.80
2022-12-25T16:32:17.006Z,3.65
2022-12-25T16:34:44.143Z,3.10
2022-12-25T16:37:11.045Z,1.63
2022-12-25T16:39:38.051Z,1.60
2022-12-25T16:42:05.027Z,1.58
2022-12-25T16:44:32.025Z,2.75
2022-12-25T16:46:58.992Z,1.92
2022-12-25T16:49:26.039Z,1.52
2022-12-25T16:51:53.027Z,2.97
2022-12-25T16:54:19.978Z,1.30
2022-12-25T16:56:46.937Z,2.58
2022-12-25T16:59:13.945Z,5.25
2022-12-25T17:01:43.473Z,3.13
2022-12-25T17:04:10.710Z,3.15
2022-12-25T17:06:38.110Z,2.03
2022-12-25T17:09:05.134Z,1.63
2022-12-25T17:11:32.460Z,1.65
2022-12-25T17:14:02.758Z,2.20
2022-12-25T17:16:35.751Z,1.52
2022-12-25T17:19:09.785Z,2.90
2022-12-25T17:21:38.409Z,2.80
2022-12-25T17:24:05.952Z,1.15
2022-12-25T17:26:33.418Z,1.52
2022-12-25T17:29:00.732Z,1.45
2022-12-25T17:31:28.864Z,1.42
2022-12-25T17:33:56.040Z,4.07
2022-12-25T17:36:23.147Z,1.80
2022-12-25T17:38:50.405Z,3.88
2022-12-25T17:41:18.725Z,4.78
2022-12-25T17:43:46.631Z,1.90
2022-12-25T17:46:16.598Z,3.70
2022-12-25T17:48:44.559Z,2.90
2022-12-25T17:51:14.703Z,2.80
2022-12-25T17:53:45.823Z,4.35
2022-12-25T17:56:13.595Z,3.85
2022-12-25T17:58:40.892Z,3.55
2022-12-25T18:01:14.255Z,4.57
2022-12-25T18:03:42.320Z,4.82
2022-12-25T18:06:13.393Z,2.17
2022-12-25T18:08:41.941Z,1.95
2022-12-25T18:11:17.445Z,1.52
2022-12-25T18:13:48.384Z,3.00
2022-12-25T18:16:16.210Z,2.40
2022-12-25T18:18:49.690Z,3.72
2022-12-25T18:21:19.415Z,1.48
2022-12-25T18:23:46.567Z,1.85
2022-12-25T18:26:13.662Z,1.30
2022-12-25T18:28:42.571Z,1.52
2022-12-25T18:31:20.486Z,1.30
2022-12-25T18:33:48.227Z,1.73
2022-12-25T18:36:18.094Z,2.78
2022-12-25T18:38:45.040Z,2.45
2022-12-25T18:41:12.408Z,2.78
2022-12-25T18:43:54.195Z,1.20
2022-12-25T18:46:27.118Z,3.15
2022-12-25T18:48:56.154Z,2.25
2022-12-25T18:51:23.698Z,2.35
2022-12-25T18:53:51.319Z,1.83
2022-12-25T18:56:20.146Z,3.08
2022-12-25T18:58:47.562Z,3.03
2022-12-25T19:01:16.045Z,2.78
2022-12-25T19:03:44.293Z,2.88
2022-12-25T19:06:17.786Z,4.45
2022-12-25T19:08:45.226Z,2.88
2022-12-25T19:11:13.373Z,2.35
2022-12-25T19:13:40.409Z,2.25
2022-12-25T19:16:07.577Z,2.58
2022-12-25T19:18:34.625Z,2.25
2022-12-25T19:21:03.563Z,3.88
2022-12-25T19:23:30.641Z,1.97
2022-12-25T19:25:57.684Z,1.95
2022-12-25T19:28:25.346Z,2.40
2022-12-25T19:30:55.015Z,2.58
2022-12-25T19:33:22.963Z,1.67
2022-12-25T19:35:50.203Z,2.22
2022-12-25T19:38:17.232Z,3.13
2022-12-25T19:41:00.551Z,4.65
2022-12-25T19:43:33.819Z,2.15
2022-12-25T19:46:01.984Z,4.35
2022-12-25T19:48:30.587Z,1.83
2022-12-25T19:50:57.968Z,2.40
2022-12-25T19:53:26.489Z,2.70
2022-12-25T19:55:54.141Z,3.45
2022-12-25T19:58:22.523Z,4.32
2022-12-25T20:01:00.166Z,6.15
2022-12-25T20:03:27.767Z,5.72
2022-12-25T20:05:54.941Z,2.33
2022-12-25T20:08:21.933Z,2.80
2022-12-25T20:10:49.628Z,1.92
2022-12-25T20:13:16.905Z,2.22
2022-12-25T20:15:44.256Z,2.00
2022-12-25T20:18:11.246Z,2.38
2022-12-25T20:20:38.403Z,2.63
2022-12-25T20:23:06.076Z,3.08
2022-12-25T20:25:33.264Z,3.17
2022-12-25T20:28:00.350Z,3.58
2022-12-25T20:30:27.352Z,2.45
2022-12-25T20:32:55.352Z,2.65
2022-12-25T20:35:22.320Z,2.95
2022-12-25T20:37:49.347Z,3.88
2022-12-25T20:40:16.395Z,3.83
2022-12-25T20:42:43.494Z,1.58
2022-12-25T20:45:12.577Z,3.42
2022-12-25T20:47:39.539Z,1.42
2022-12-25T20:50:07.205Z,3.65
2022-12-25T20:52:34.597Z,3.58
2022-12-25T20:55:01.681Z,5.70
2022-12-25T20:57:28.831Z,3.55
2022-12-25T20:59:55.805Z,2.53
2022-12-25T21:02:35.186Z,2.67
2022-12-25T21:05:04.371Z,4.45
2022-12-25T21:07:31.311Z,4.47
2022-12-25T21:09:59.416Z,4.45
2022-12-25T21:12:26.367Z,5.30
2022-12-25T21:14:53.354Z,2.35
2022-12-25T21:17:20.344Z,5.22
2022-12-25T21:19:47.307Z,3.08
2022-12-25T21:22:14.272Z,4.38
2022-12-25T21:24:41.228Z,3.45
2022-12-25T21:27:09.234Z,4.45
2022-12-25T21:29:36.284Z,3.33
2022-12-25T21:32:21.749Z,6.97
2022-12-25T21:34:48.795Z,2.58
2022-12-25T21:37:15.775Z,4.25
2022-12-25T21:39:42.837Z,3.20
2022-12-25T21:42:10.922Z,3.55
2022-12-25T21:44:37.862Z,5.35
2022-12-25T21:47:04.911Z,3.97
2022-12-25T21:49:50.311Z,2.85
2022-12-25T21:52:17.974Z,4.28
2022-12-25T21:54:44.962Z,3.05
2022-12-25T21:57:11.946Z,2.20
2022-12-25T21:59:38.990Z,2.90
2022-12-25T22:02:11.652Z,4.57
2022-12-25T22:04:39.153Z,3.15
2022-12-25T22:07:18.126Z,3.47
2022-12-25T22:09:47.163Z,4.13
2022-12-25T22:12:34.504Z,2.72
2022-12-25T22:15:06.615Z,2.63
2022-12-25T22:17:58.506Z,4.47
2022-12-25T22:20:37.048Z,5.28
2022-12-25T22:23:04.965Z,3.47
2022-12-25T22:25:32.000Z,3.40
2022-12-25T22:27:59.662Z,2.50
2022-12-25T22:30:28.837Z,3.10
2022-12-25T22:32:56.029Z,2.15
2022-12-25T22:35:23.409Z,2.88
2022-12-25T22:37:50.488Z,2.80
2022-12-25T22:40:19.119Z,3.38
2022-12-25T22:42:46.253Z,2.67
2022-12-25T22:45:13.307Z,2.97
2022-12-25T22:47:40.691Z,2.03
2022-12-25T22:50:08.519Z,2.58
2022-12-25T22:52:36.296Z,4.65
2022-12-25T22:55:04.693Z,3.67
2022-12-25T22:57:33.047Z,5.45
2022-12-25T23:00:00.159Z,4.57
2022-12-25T23:02:27.777Z,2.63
2022-12-25T23:04:54.977Z,3.70
2022-12-25T23:07:22.189Z,4.63
2022-12-25T23:09:49.236Z,6.10
2022-12-25T23:12:34.675Z,4.32
2022-12-25T23:15:01.750Z,2.63
2022-12-25T23:17:47.236Z,2.65
2022-12-25T23:20:33.772Z,3.75
2022-12-25T23:23:19.718Z,2.50
2022-12-25T23:26:05.142Z,2.97
2022-12-25T23:28:50.680Z,3.35
2022-12-25T23:31:18.338Z,6.50
2022-12-25T23:33:45.346Z,4.68
2022-12-25T23:36:12.806Z,3.78
2022-12-25T23:38:39.817Z,5.20
2022-12-25T23:41:08.197Z,4.28
2022-12-25T23:43:35.193Z,3.67
2022-12-25T23:46:02.427Z,3.72
2022-12-25T23:48:29.492Z,2.83
2022-12-25T23:50:56.709Z,1.50
2022-12-25T23:53:36.461Z,3.83
2022-12-25T23:58:33.043Z,1.90
